Boca Grande, Florida
Current Conditions -  °F | °C
As of 5:53 PM on Tuesday 25 Nov 2014 (Local Time) from KPGD Reporting Station
Overcast Overcast  
Wind Chill: 80°   Ceiling: 8000
Heat Index: 85°   Visibility: 10mi
Dew Point: 74°   Wind: 15mph
Humidity: 81%   Direction: 180°S
Pressure: 29.92"   Gusts: 23mph
Location:  26.75°N, 82.26°W
Report Text: KPGD 252253Z AUTO 18013G20KT 10SM OVC080 27/23 A2992 RMK AO2 SLP130 T02670233
Loading
Personal Weather Stations






























Interactive Weather Map New forecast layout! Learn more

10-Day Weather Forecast

Advertisements
Track Severe Weather on mobile